sensor_id;sensor_type;location;lat;lon;timestamp;pressure;altitude;pressure_sealevel;temperature
14666;BMP280;7420;53.574;10.040;2023-11-22T00:00:07;11078.00;;;-136.87
14666;BMP280;7420;53.574;10.040;2023-11-22T00:02:32;11084.03;;;-136.87
14666;BMP280;7420;53.574;10.040;2023-11-22T00:04:58;11120.22;;;-136.87
14666;BMP280;7420;53.574;10.040;2023-11-22T00:07:23;11148.37;;;-136.87
14666;BMP280;7420;53.574;10.040;2023-11-22T00:09:48;11184.56;;;-136.87
14666;BMP280;7420;53.574;10.040;2023-11-22T00:12:14;11204.69;;;-136.87
14666;BMP280;7420;53.574;10.040;2023-11-22T00:14:42;11190.59;;;-136.87
14666;BMP280;7420;53.574;10.040;2023-11-22T00:17:07;11232.84;;;-136.87
14666;BMP280;7420;53.574;10.040;2023-11-22T00:19:32;11305.25;;;-136.87
14666;BMP280;7420;53.574;10.040;2023-11-22T00:21:59;11301.22;;;-136.87
14666;BMP280;7420;53.574;10.040;2023-11-22T00:24:25;11343.44;;;-136.87
14666;BMP280;7420;53.574;10.040;2023-11-22T00:26:50;11329.38;;;-136.87
14666;BMP280;7420;53.574;10.040;2023-11-22T00:29:15;11301.22;;;-136.87
14666;BMP280;7420;53.574;10.040;2023-11-22T00:31:41;11287.13;;;-136.87
14666;BMP280;7420;53.574;10.040;2023-11-22T00:34:06;11335.41;;;-136.87
14666;BMP280;7420;53.574;10.040;2023-11-22T00:36:32;11371.59;;;-136.87
14666;BMP280;7420;53.574;10.040;2023-11-22T00:38:57;11413.84;;;-136.87
14666;BMP280;7420;53.574;10.040;2023-11-22T00:41:22;11415.84;;;-136.87
14666;BMP280;7420;53.574;10.040;2023-11-22T00:43:48;11393.72;;;-136.87
14666;BMP280;7420;53.574;10.040;2023-11-22T00:46:13;11373.63;;;-136.87
14666;BMP280;7420;53.574;10.040;2023-11-22T00:48:38;11411.84;;;-136.87
14666;BMP280;7420;53.574;10.040;2023-11-22T00:51:04;11454.06;;;-136.87
14666;BMP280;7420;53.574;10.040;2023-11-22T00:53:35;11460.09;;;-136.87
14666;BMP280;7420;53.574;10.040;2023-11-22T00:56:02;11492.28;;;-136.87
14666;BMP280;7420;53.574;10.040;2023-11-22T00:58:27;11518.44;;;-136.87
14666;BMP280;7420;53.574;10.040;2023-11-22T01:00:52;11570.72;;;-136.87
14666;BMP280;7420;53.574;10.040;2023-11-22T01:03:18;11534.50;;;-136.87
14666;BMP280;7420;53.574;10.040;2023-11-22T01:08:09;11606.91;;;-136.87
14666;BMP280;7420;53.574;10.040;2023-11-22T01:10:35;11590.84;;;-136.87
14666;BMP280;7420;53.574;10.040;2023-11-22T01:13:00;11616.97;;;-136.87
14666;BMP280;7420;53.574;10.040;2023-11-22T01:15:25;11623.00;;;-136.87
14666;BMP280;7420;53.574;10.040;2023-11-22T01:17:51;11610.94;;;-136.87
14666;BMP280;7420;53.574;10.040;2023-11-22T01:20:17;11588.81;;;-136.87
14666;BMP280;7420;53.574;10.040;2023-11-22T01:22:42;11574.75;;;-136.87
14666;BMP280;7420;53.574;10.040;2023-11-22T01:25:08;11568.72;;;-136.87
14666;BMP280;7420;53.574;10.040;2023-11-22T01:27:33;11623.00;;;-136.87
14666;BMP280;7420;53.574;10.040;2023-11-22T01:29:58;11665.25;;;-136.87
14666;BMP280;7420;53.574;10.040;2023-11-22T01:32:24;11703.47;;;-136.87
14666;BMP280;7420;53.574;10.040;2023-11-22T01:34:49;11691.41;;;-136.87
14666;BMP280;7420;53.574;10.040;2023-11-22T01:37:14;11687.38;;;-136.87
14666;BMP280;7420;53.574;10.040;2023-11-22T01:39:40;11729.63;;;-136.87
14666;BMP280;7420;53.574;10.040;2023-11-22T01:42:07;11767.84;;;-136.87
14666;BMP280;7420;53.574;10.040;2023-11-22T01:44:32;11763.81;;;-136.87
14666;BMP280;7420;53.574;10.040;2023-11-22T01:46:58;11812.09;;;-136.87
14666;BMP280;7420;53.574;10.040;2023-11-22T01:49:23;11828.19;;;-136.87
14666;BMP280;7420;53.574;10.040;2023-11-22T01:51:49;11836.22;;;-136.87
14666;BMP280;7420;53.574;10.040;2023-11-22T01:54:15;11767.84;;;-136.87
14666;BMP280;7420;53.574;10.040;2023-11-22T01:56:42;11860.38;;;-136.87
14666;BMP280;7420;53.574;10.040;2023-11-22T01:59:07;11868.41;;;-136.87
14666;BMP280;7420;53.574;10.040;2023-11-22T02:01:33;11852.31;;;-136.87
14666;BMP280;7420;53.574;10.040;2023-11-22T02:03:58;11880.47;;;-136.87
14666;BMP280;7420;53.574;10.040;2023-11-22T02:06:24;11900.59;;;-136.87
14666;BMP280;7420;53.574;10.040;2023-11-22T02:08:50;11924.72;;;-136.87
14666;BMP280;7420;53.574;10.040;2023-11-22T02:11:18;11940.81;;;-136.87
14666;BMP280;7420;53.574;10.040;2023-11-22T02:13:48;11926.75;;;-136.87
14666;BMP280;7420;53.574;10.040;2023-11-22T02:16:13;11969.00;;;-136.87
14666;BMP280;7420;53.574;10.040;2023-11-22T02:18:39;11938.81;;;-136.87
14666;BMP280;7420;53.574;10.040;2023-11-22T02:21:07;11940.81;;;-136.87
14666;BMP280;7420;53.574;10.040;2023-11-22T02:23:32;11950.88;;;-136.87
14666;BMP280;7420;53.574;10.040;2023-11-22T02:25:58;11975.03;;;-136.87
14666;BMP280;7420;53.574;10.040;2023-11-22T02:28:24;11975.03;;;-136.87
14666;BMP280;7420;53.574;10.040;2023-11-22T02:30:49;11964.97;;;-136.87
14666;BMP280;7420;53.574;10.040;2023-11-22T02:33:14;12019.28;;;-136.87
14666;BMP280;7420;53.574;10.040;2023-11-22T02:35:40;12019.28;;;-136.87
14666;BMP280;7420;53.574;10.040;2023-11-22T02:38:07;12067.56;;;-136.87
14666;BMP280;7420;53.574;10.040;2023-11-22T02:40:32;12077.63;;;-136.87
14666;BMP280;7420;53.574;10.040;2023-11-22T02:42:58;12053.47;;;-136.87
14666;BMP280;7420;53.574;10.040;2023-11-22T02:45:29;12039.41;;;-136.87
14666;BMP280;7420;53.574;10.040;2023-11-22T02:47:54;12025.31;;;-136.87
14666;BMP280;7420;53.574;10.040;2023-11-22T02:50:20;12073.59;;;-136.87
14666;BMP280;7420;53.574;10.040;2023-11-22T02:52:45;12089.69;;;-136.87
14666;BMP280;7420;53.574;10.040;2023-11-22T02:55:10;12121.88;;;-136.87
14666;BMP280;7420;53.574;10.040;2023-11-22T02:57:37;12158.09;;;-136.87
14666;BMP280;7420;53.574;10.040;2023-11-22T03:00:04;12158.09;;;-136.87
14666;BMP280;7420;53.574;10.040;2023-11-22T03:02:29;12144.00;;;-136.87
14666;BMP280;7420;53.574;10.040;2023-11-22T03:04:54;12144.00;;;-136.87
14666;BMP280;7420;53.574;10.040;2023-11-22T03:07:20;12188.25;;;-136.87
14666;BMP280;7420;53.574;10.040;2023-11-22T03:09:45;12162.09;;;-136.87
14666;BMP280;7420;53.574;10.040;2023-11-22T03:12:11;12174.19;;;-136.87
14666;BMP280;7420;53.574;10.040;2023-11-22T03:14:38;12190.28;;;-136.87
14666;BMP280;7420;53.574;10.040;2023-11-22T03:17:04;12210.38;;;-136.87
14666;BMP280;7420;53.574;10.040;2023-11-22T03:19:30;12206.38;;;-136.87
14666;BMP280;7420;53.574;10.040;2023-11-22T03:21:55;12242.56;;;-136.87
14666;BMP280;7420;53.574;10.040;2023-11-22T03:24:21;12232.53;;;-136.87
14666;BMP280;7420;53.574;10.040;2023-11-22T03:26:47;12200.34;;;-136.87
14666;BMP280;7420;53.574;10.040;2023-11-22T03:29:14;12234.53;;;-136.87
14666;BMP280;7420;53.574;10.040;2023-11-22T03:31:41;12260.69;;;-136.87
14666;BMP280;7420;53.574;10.040;2023-11-22T03:34:07;12254.66;;;-136.87
14666;BMP280;7420;53.574;10.040;2023-11-22T03:36:33;12230.50;;;-136.87
14666;BMP280;7420;53.574;10.040;2023-11-22T03:38:58;12230.50;;;-136.87
14666;BMP280;7420;53.574;10.040;2023-11-22T03:41:23;12284.81;;;-136.87
14666;BMP280;7420;53.574;10.040;2023-11-22T03:43:49;12304.94;;;-136.87
14666;BMP280;7420;53.574;10.040;2023-11-22T03:46:15;12310.97;;;-136.87
14666;BMP280;7420;53.574;10.040;2023-11-22T03:48:40;12296.91;;;-136.87
14666;BMP280;7420;53.574;10.040;2023-11-22T03:51:05;12383.41;;;-136.87
14666;BMP280;7420;53.574;10.040;2023-11-22T03:53:31;12395.47;;;-136.87
14666;BMP280;7420;53.574;10.040;2023-11-22T03:55:57;12389.44;;;-136.87
14666;BMP280;7420;53.574;10.040;2023-11-22T03:58:22;12391.47;;;-136.87
14666;BMP280;7420;53.574;10.040;2023-11-22T04:00:48;12397.50;;;-136.87
14666;BMP280;7420;53.574;10.040;2023-11-22T04:03:13;12441.75;;;-136.87
14666;BMP280;7420;53.574;10.040;2023-11-22T04:05:39;12417.63;;;-136.87
14666;BMP280;7420;53.574;10.040;2023-11-22T04:08:04;12433.72;;;-136.87
14666;BMP280;7420;53.574;10.040;2023-11-22T04:10:30;12443.78;;;-136.87
14666;BMP280;7420;53.574;10.040;2023-11-22T04:12:56;12431.69;;;-136.87
14666;BMP280;7420;53.574;10.040;2023-11-22T04:15:21;12443.78;;;-136.87
14666;BMP280;7420;53.574;10.040;2023-11-22T04:17:47;12443.78;;;-136.87
14666;BMP280;7420;53.574;10.040;2023-11-22T04:20:12;12463.88;;;-136.87
14666;BMP280;7420;53.574;10.040;2023-11-22T04:22:43;12594.66;;;-136.87
14666;BMP280;7420;53.574;10.040;2023-11-22T04:25:10;12624.84;;;-136.87
14666;BMP280;7420;53.574;10.040;2023-11-22T04:27:38;12657.03;;;-136.87
14666;BMP280;7420;53.574;10.040;2023-11-22T04:30:05;12697.28;;;-136.87
14666;BMP280;7420;53.574;10.040;2023-11-22T04:32:34;12665.09;;;-136.87
14666;BMP280;7420;53.574;10.040;2023-11-22T04:35:01;12642.97;;;-136.87
14666;BMP280;7420;53.574;10.040;2023-11-22T04:37:29;12659.06;;;-136.87
14666;BMP280;7420;53.574;10.040;2023-11-22T04:39:57;12681.19;;;-136.87
14666;BMP280;7420;53.574;10.040;2023-11-22T04:42:22;12655.03;;;-136.87
14666;BMP280;7420;53.574;10.040;2023-11-22T04:44:47;12624.84;;;-136.87
14666;BMP280;7420;53.574;10.040;2023-11-22T04:47:13;12649.00;;;-136.87
14666;BMP280;7420;53.574;10.040;2023-11-22T04:49:38;12715.41;;;-136.87
14666;BMP280;7420;53.574;10.040;2023-11-22T04:52:04;12713.38;;;-136.87
14666;BMP280;7420;53.574;10.040;2023-11-22T04:54:29;12717.41;;;-136.87
14666;BMP280;7420;53.574;10.040;2023-11-22T04:56:55;12753.63;;;-136.87
14666;BMP280;7420;53.574;10.040;2023-11-22T04:59:20;12681.19;;;-136.87
14666;BMP280;7420;53.574;10.040;2023-11-22T05:01:46;12697.28;;;-136.87
14666;BMP280;7420;53.574;10.040;2023-11-22T05:04:11;12681.19;;;-136.87
14666;BMP280;7420;53.574;10.040;2023-11-22T05:06:37;12681.19;;;-136.87
14666;BMP280;7420;53.574;10.040;2023-11-22T05:09:02;12711.38;;;-136.87
14666;BMP280;7420;53.574;10.040;2023-11-22T05:11:28;12773.75;;;-136.87
14666;BMP280;7420;53.574;10.040;2023-11-22T05:13:53;12743.56;;;-136.87
14666;BMP280;7420;53.574;10.040;2023-11-22T05:16:18;12886.44;;;-136.87
14666;BMP280;7420;53.574;10.040;2023-11-22T05:18:44;12936.75;;;-136.87
14666;BMP280;7420;53.574;10.040;2023-11-22T05:21:09;12898.50;;;-136.87
14666;BMP280;7420;53.574;10.040;2023-11-22T05:23:34;12769.72;;;-136.87
14666;BMP280;7420;53.574;10.040;2023-11-22T05:26:02;12898.50;;;-136.87
14666;BMP280;7420;53.574;10.040;2023-11-22T05:28:30;12880.41;;;-136.87
14666;BMP280;7420;53.574;10.040;2023-11-22T05:30:56;12910.59;;;-136.87
14666;BMP280;7420;53.574;10.040;2023-11-22T05:33:21;12888.44;;;-136.87
14666;BMP280;7420;53.574;10.040;2023-11-22T05:35:47;12814.00;;;-136.87
14666;BMP280;7420;53.574;10.040;2023-11-22T05:38:13;12755.63;;;-136.87
14666;BMP280;7420;53.574;10.040;2023-11-22T05:40:39;12689.25;;;-136.87
14666;BMP280;7420;53.574;10.040;2023-11-22T05:43:04;12683.19;;;-136.87
14666;BMP280;7420;53.574;10.040;2023-11-22T05:45:30;12767.72;;;-136.87
14666;BMP280;7420;53.574;10.040;2023-11-22T05:47:55;12805.94;;;-136.87
14666;BMP280;7420;53.574;10.040;2023-11-22T05:50:21;12729.47;;;-136.87
14666;BMP280;7420;53.574;10.040;2023-11-22T05:52:47;12761.69;;;-136.87
14666;BMP280;7420;53.574;10.040;2023-11-22T05:55:12;12769.72;;;-136.87
14666;BMP280;7420;53.574;10.040;2023-11-22T05:57:40;12856.25;;;-136.87
14666;BMP280;7420;53.574;10.040;2023-11-22T06:00:07;12912.59;;;-136.87
14666;BMP280;7420;53.574;10.040;2023-11-22T06:02:32;12954.84;;;-136.87
14666;BMP280;7420;53.574;10.040;2023-11-22T06:04:58;12956.88;;;-136.87
14666;BMP280;7420;53.574;10.040;2023-11-22T06:07:23;12997.13;;;-136.87
14666;BMP280;7420;53.574;10.040;2023-11-22T06:09:48;13001.13;;;-136.87
14666;BMP280;7420;53.574;10.040;2023-11-22T06:12:14;12979.00;;;-136.87
14666;BMP280;7420;53.574;10.040;2023-11-22T06:14:39;12964.91;;;-136.87
14666;BMP280;7420;53.574;10.040;2023-11-22T06:17:05;12993.09;;;-136.87
14666;BMP280;7420;53.574;10.040;2023-11-22T06:19:30;12977.00;;;-136.87
14666;BMP280;7420;53.574;10.040;2023-11-22T06:21:56;12816.00;;;-136.87
14666;BMP280;7420;53.574;10.040;2023-11-22T06:24:21;12830.09;;;-136.87
14666;BMP280;7420;53.574;10.040;2023-11-22T06:26:46;12912.59;;;-136.87
14666;BMP280;7420;53.574;10.040;2023-11-22T06:29:12;12954.84;;;-136.87
14666;BMP280;7420;53.574;10.040;2023-11-22T06:31:38;12930.69;;;-136.87
14666;BMP280;7420;53.574;10.040;2023-11-22T06:34:03;12765.69;;;-136.87
14666;BMP280;7420;53.574;10.040;2023-11-22T06:36:28;12646.97;;;-136.87
14666;BMP280;7420;53.574;10.040;2023-11-22T06:38:55;12628.88;;;-136.87
14666;BMP280;7420;53.574;10.040;2023-11-22T06:41:20;12745.56;;;-136.87
14666;BMP280;7420;53.574;10.040;2023-11-22T06:43:47;12757.66;;;-136.87
14666;BMP280;7420;53.574;10.040;2023-11-22T06:46:13;12755.63;;;-136.87
14666;BMP280;7420;53.574;10.040;2023-11-22T06:48:41;12814.00;;;-136.87
14666;BMP280;7420;53.574;10.040;2023-11-22T06:51:06;12854.25;;;-136.87
14666;BMP280;7420;53.574;10.040;2023-11-22T06:53:32;12797.91;;;-136.87
14666;BMP280;7420;53.574;10.040;2023-11-22T06:55:57;12713.38;;;-136.87
14666;BMP280;7420;53.574;10.040;2023-11-22T06:58:22;12669.13;;;-136.87
14666;BMP280;7420;53.574;10.040;2023-11-22T07:00:48;12642.97;;;-136.87
14666;BMP280;7420;53.574;10.040;2023-11-22T07:03:13;12693.25;;;-136.87
14666;BMP280;7420;53.574;10.040;2023-11-22T07:05:39;12685.22;;;-136.87
14666;BMP280;7420;53.574;10.040;2023-11-22T07:08:05;12600.69;;;-136.87
14666;BMP280;7420;53.574;10.040;2023-11-22T07:10:31;12568.50;;;-136.87
14666;BMP280;7420;53.574;10.040;2023-11-22T07:13:00;12568.50;;;-136.87
14666;BMP280;7420;53.574;10.040;2023-11-22T07:15:27;12542.34;;;-136.87
14666;BMP280;7420;53.574;10.040;2023-11-22T07:17:52;12492.06;;;-136.87
14666;BMP280;7420;53.574;10.040;2023-11-22T07:20:17;12429.69;;;-136.87
14666;BMP280;7420;53.574;10.040;2023-11-22T07:22:44;12371.34;;;-136.87
14666;BMP280;7420;53.574;10.040;2023-11-22T07:25:09;12381.41;;;-136.87
14666;BMP280;7420;53.574;10.040;2023-11-22T07:27:46;12413.59;;;-136.87
14666;BMP280;7420;53.574;10.040;2023-11-22T07:30:15;12365.31;;;-136.87
14666;BMP280;7420;53.574;10.040;2023-11-22T07:32:41;12343.16;;;-136.87
14666;BMP280;7420;53.574;10.040;2023-11-22T07:35:07;12367.31;;;-136.87
14666;BMP280;7420;53.574;10.040;2023-11-22T07:37:34;12304.94;;;-136.87
14666;BMP280;7420;53.574;10.040;2023-11-22T07:40:01;12288.84;;;-136.87
14666;BMP280;7420;53.574;10.040;2023-11-22T07:42:29;12339.16;;;-136.87
14666;BMP280;7420;53.574;10.040;2023-11-22T07:44:54;12294.88;;;-136.87
14666;BMP280;7420;53.574;10.040;2023-11-22T07:47:22;12264.72;;;-136.87
14666;BMP280;7420;53.574;10.040;2023-11-22T07:49:48;12270.75;;;-136.87
14666;BMP280;7420;53.574;10.040;2023-11-22T07:52:14;12250.63;;;-136.87
14666;BMP280;7420;53.574;10.040;2023-11-22T07:54:39;12232.53;;;-136.87
14666;BMP280;7420;53.574;10.040;2023-11-22T07:57:05;12202.34;;;-136.87
14666;BMP280;7420;53.574;10.040;2023-11-22T07:59:31;12174.19;;;-136.87
14666;BMP280;7420;53.574;10.040;2023-11-22T08:01:56;12156.06;;;-136.87
14666;BMP280;7420;53.574;10.040;2023-11-22T08:04:22;12131.94;;;-136.87
14666;BMP280;7420;53.574;10.040;2023-11-22T08:06:48;12073.59;;;-136.87
14666;BMP280;7420;53.574;10.040;2023-11-22T08:09:14;12045.44;;;-136.87
14666;BMP280;7420;53.574;10.040;2023-11-22T08:11:42;12047.44;;;-136.87
14666;BMP280;7420;53.574;10.040;2023-11-22T08:14:07;12013.25;;;-136.87
14666;BMP280;7420;53.574;10.040;2023-11-22T08:16:33;12023.31;;;-136.87
14666;BMP280;7420;53.574;10.040;2023-11-22T08:21:28;12021.28;;;-136.87
14666;BMP280;7420;53.574;10.040;2023-11-22T08:23:54;11950.88;;;-136.87
14666;BMP280;7420;53.574;10.040;2023-11-22T08:26:19;11912.66;;;-136.87
14666;BMP280;7420;53.574;10.040;2023-11-22T08:28:45;11876.47;;;-136.87
14666;BMP280;7420;53.574;10.040;2023-11-22T08:31:10;11820.13;;;-136.87
14666;BMP280;7420;53.574;10.040;2023-11-22T08:33:39;11824.16;;;-136.87
14666;BMP280;7420;53.574;10.040;2023-11-22T08:36:06;11828.19;;;-136.87
14666;BMP280;7420;53.574;10.040;2023-11-22T08:38:31;11826.16;;;-136.87
14666;BMP280;7420;53.574;10.040;2023-11-22T08:41:01;11868.41;;;-136.87
14666;BMP280;7420;53.574;10.040;2023-11-22T08:43:27;11781.91;;;-136.87
14666;BMP280;7420;53.574;10.040;2023-11-22T08:45:53;11691.41;;;-136.87
14666;BMP280;7420;53.574;10.040;2023-11-22T08:48:18;11683.34;;;-136.87
14666;BMP280;7420;53.574;10.040;2023-11-22T08:50:45;11822.16;;;-136.87
14666;BMP280;7420;53.574;10.040;2023-11-22T08:53:12;11671.28;;;-136.87
14666;BMP280;7420;53.574;10.040;2023-11-22T08:55:38;11719.56;;;-136.87
14666;BMP280;7420;53.574;10.040;2023-11-22T08:58:03;11582.78;;;-136.87
14666;BMP280;7420;53.574;10.040;2023-11-22T09:00:30;11552.63;;;-136.87
14666;BMP280;7420;53.574;10.040;2023-11-22T09:02:57;11534.50;;;-136.87
14666;BMP280;7420;53.574;10.040;2023-11-22T09:05:23;11522.44;;;-136.87
14666;BMP280;7420;53.574;10.040;2023-11-22T09:07:48;11506.34;;;-136.87
14666;BMP280;7420;53.574;10.040;2023-11-22T09:10:14;11554.63;;;-136.87
14666;BMP280;7420;53.574;10.040;2023-11-22T09:12:40;11462.09;;;-136.87
14666;BMP280;7420;53.574;10.040;2023-11-22T09:15:10;11458.09;;;-136.87
14666;BMP280;7420;53.574;10.040;2023-11-22T09:17:39;11335.41;;;-136.87
14666;BMP280;7420;53.574;10.040;2023-11-22T09:20:14;11391.72;;;-136.87
14666;BMP280;7420;53.574;10.040;2023-11-22T09:22:48;11363.56;;;-136.87
14666;BMP280;7420;53.574;10.040;2023-11-22T09:25:18;11309.25;;;-136.87
14666;BMP280;7420;53.574;10.040;2023-11-22T09:27:47;11311.28;;;-136.87
14666;BMP280;7420;53.574;10.040;2023-11-22T09:30:15;11279.09;;;-136.87
14666;BMP280;7420;53.574;10.040;2023-11-22T09:32:57;11273.06;;;-136.87
14666;BMP280;7420;53.574;10.040;2023-11-22T09:35:22;11345.47;;;-136.87
14666;BMP280;7420;53.574;10.040;2023-11-22T09:37:48;11313.28;;;-136.87
14666;BMP280;7420;53.574;10.040;2023-11-22T09:40:17;11301.22;;;-136.87
14666;BMP280;7420;53.574;10.040;2023-11-22T09:42:46;11252.94;;;-136.87
14666;BMP280;7420;53.574;10.040;2023-11-22T09:45:20;11108.16;;;-136.87
14666;BMP280;7420;53.574;10.040;2023-11-22T09:47:46;11084.03;;;-136.87
14666;BMP280;7420;53.574;10.040;2023-11-22T09:50:50;11212.72;;;-136.87
14666;BMP280;7420;53.574;10.040;2023-11-22T09:53:26;11130.28;;;-136.87
14666;BMP280;7420;53.574;10.040;2023-11-22T09:55:56;11156.41;;;-136.87
14666;BMP280;7420;53.574;10.040;2023-11-22T09:58:22;11015.66;;;-136.87
14666;BMP280;7420;53.574;10.040;2023-11-22T10:00:50;10963.38;;;-136.87
14666;BMP280;7420;53.574;10.040;2023-11-22T10:03:15;10947.28;;;-136.87
14666;BMP280;7420;53.574;10.040;2023-11-22T10:05:42;10882.94;;;-136.87
14666;BMP280;7420;53.574;10.040;2023-11-22T10:08:07;10963.38;;;-136.87
14666;BMP280;7420;53.574;10.040;2023-11-22T10:10:36;10850.75;;;-136.87
14666;BMP280;7420;53.574;10.040;2023-11-22T10:13:01;10864.84;;;-136.87
14666;BMP280;7420;53.574;10.040;2023-11-22T10:15:28;10872.88;;;-136.87
14666;BMP280;7420;53.574;10.040;2023-11-22T10:17:55;10858.81;;;-136.87
14666;BMP280;7420;53.574;10.040;2023-11-22T10:20:24;10708.00;;;-136.87
14666;BMP280;7420;53.574;10.040;2023-11-22T10:22:51;10699.97;;;-136.87
14666;BMP280;7420;53.574;10.040;2023-11-22T10:25:17;10742.19;;;-136.87
14666;BMP280;7420;53.574;10.040;2023-11-22T10:27:46;10669.81;;;-136.87
14666;BMP280;7420;53.574;10.040;2023-11-22T10:30:16;10645.66;;;-136.87
14666;BMP280;7420;53.574;10.040;2023-11-22T10:32:42;10645.66;;;-136.87
14666;BMP280;7420;53.574;10.040;2023-11-22T10:35:08;10557.22;;;-136.87
14666;BMP280;7420;53.574;10.040;2023-11-22T10:37:35;10621.53;;;-136.87
14666;BMP280;7420;53.574;10.040;2023-11-22T10:40:00;10569.28;;;-136.87
14666;BMP280;7420;53.574;10.040;2023-11-22T10:42:26;10535.09;;;-136.87
14666;BMP280;7420;53.574;10.040;2023-11-22T10:44:55;10605.47;;;-136.87
14666;BMP280;7420;53.574;10.040;2023-11-22T10:47:22;10545.16;;;-136.87
14666;BMP280;7420;53.574;10.040;2023-11-22T10:49:48;10567.25;;;-136.87
14666;BMP280;7420;53.574;10.040;2023-11-22T10:52:13;10404.41;;;-136.87
14666;BMP280;7420;53.574;10.040;2023-11-22T10:54:44;10416.47;;;-136.87
14666;BMP280;7420;53.574;10.040;2023-11-22T10:57:15;10380.28;;;-136.87
14666;BMP280;7420;53.574;10.040;2023-11-22T10:59:43;10358.16;;;-136.87
14666;BMP280;7420;53.574;10.040;2023-11-22T11:02:16;10243.56;;;-136.87
14666;BMP280;7420;53.574;10.040;2023-11-22T11:04:47;10313.94;;;-136.87
14666;BMP280;7420;53.574;10.040;2023-11-22T11:07:14;10313.94;;;-136.87
14666;BMP280;7420;53.574;10.040;2023-11-22T11:09:42;10368.22;;;-136.87
14666;BMP280;7420;53.574;10.040;2023-11-22T11:12:08;10239.56;;;-136.87
14666;BMP280;7420;53.574;10.040;2023-11-22T11:14:34;10239.56;;;-136.87
14666;BMP280;7420;53.574;10.040;2023-11-22T11:17:00;10179.25;;;-136.87
14666;BMP280;7420;53.574;10.040;2023-11-22T11:19:26;10161.16;;;-136.87
14666;BMP280;7420;53.574;10.040;2023-11-22T11:21:54;10106.88;;;-136.87
14666;BMP280;7420;53.574;10.040;2023-11-22T11:24:22;9986.25;;;-136.87
14666;BMP280;7420;53.574;10.040;2023-11-22T11:26:49;9936.00;;;-136.87
14666;BMP280;7420;53.574;10.040;2023-11-22T11:29:35;9893.81;;;-136.87
14666;BMP280;7420;53.574;10.040;2023-11-22T11:32:03;9815.41;;;-136.87
14666;BMP280;7420;53.574;10.040;2023-11-22T11:34:28;9925.97;;;-136.87
14666;BMP280;7420;53.574;10.040;2023-11-22T11:36:55;9982.25;;;-136.87
14666;BMP280;7420;53.574;10.040;2023-11-22T11:39:27;9839.53;;;-136.87
14666;BMP280;7420;53.574;10.040;2023-11-22T11:42:12;9913.91;;;-136.87
14666;BMP280;7420;53.574;10.040;2023-11-22T11:47:21;9954.09;;;-136.87
14666;BMP280;7420;53.574;10.040;2023-11-22T11:49:49;9801.34;;;-136.87
14666;BMP280;7420;53.574;10.040;2023-11-22T11:52:15;9592.31;;;-136.87
14666;BMP280;7420;53.574;10.040;2023-11-22T11:54:41;9507.91;;;-136.87
14666;BMP280;7420;53.574;10.040;2023-11-22T11:57:06;9327.03;;;-136.87
14666;BMP280;7420;53.574;10.040;2023-11-22T11:59:33;9616.44;;;-136.87
14666;BMP280;7420;53.574;10.040;2023-11-22T12:01:59;9716.91;;;-136.87
14666;BMP280;7420;53.574;10.040;2023-11-22T12:04:25;9684.75;;;-136.87
14666;BMP280;7420;53.574;10.040;2023-11-22T12:06:51;9791.28;;;-136.87
14666;BMP280;7420;53.574;10.040;2023-11-22T12:09:24;9777.22;;;-136.87
14666;BMP280;7420;53.574;10.040;2023-11-22T12:11:51;9905.88;;;-136.87
14666;BMP280;7420;53.574;10.040;2023-11-22T12:14:18;10062.66;;;-136.87
14666;BMP280;7420;53.574;10.040;2023-11-22T12:16:44;10082.75;;;-136.87
14666;BMP280;7420;53.574;10.040;2023-11-22T12:19:21;9986.25;;;-136.87
14666;BMP280;7420;53.574;10.040;2023-11-22T12:21:47;10070.69;;;-136.87
14666;BMP280;7420;53.574;10.040;2023-11-22T12:24:12;9988.28;;;-136.87
14666;BMP280;7420;53.574;10.040;2023-11-22T12:26:39;10062.66;;;-136.87
14666;BMP280;7420;53.574;10.040;2023-11-22T12:29:06;10126.97;;;-136.87
14666;BMP280;7420;53.574;10.040;2023-11-22T12:31:34;10229.50;;;-136.87
14666;BMP280;7420;53.574;10.040;2023-11-22T12:33:59;10225.47;;;-136.87
14666;BMP280;7420;53.574;10.040;2023-11-22T12:36:25;10135.03;;;-136.87
14666;BMP280;7420;53.574;10.040;2023-11-22T12:38:50;10217.44;;;-136.87
14666;BMP280;7420;53.574;10.040;2023-11-22T12:41:15;10305.91;;;-136.87
14666;BMP280;7420;53.574;10.040;2023-11-22T12:43:41;10374.25;;;-136.87
14666;BMP280;7420;53.574;10.040;2023-11-22T12:46:07;10366.22;;;-136.87
14666;BMP280;7420;53.574;10.040;2023-11-22T12:48:33;10424.50;;;-136.87
14666;BMP280;7420;53.574;10.040;2023-11-22T12:50:59;10376.25;;;-136.87
14666;BMP280;7420;53.574;10.040;2023-11-22T12:53:25;10396.38;;;-136.87
14666;BMP280;7420;53.574;10.040;2023-11-22T12:55:54;10360.19;;;-136.87
14666;BMP280;7420;53.574;10.040;2023-11-22T12:58:24;10436.56;;;-136.87
14666;BMP280;7420;53.574;10.040;2023-11-22T13:00:51;10388.31;;;-136.87
14666;BMP280;7420;53.574;10.040;2023-11-22T13:03:24;10336.06;;;-136.87
14666;BMP280;7420;53.574;10.040;2023-11-22T13:05:50;10332.03;;;-136.87
14666;BMP280;7420;53.574;10.040;2023-11-22T13:08:17;10344.09;;;-136.87
14666;BMP280;7420;53.574;10.040;2023-11-22T13:10:44;10328.00;;;-136.87
14666;BMP280;7420;53.574;10.040;2023-11-22T13:13:10;10263.69;;;-136.87
14666;BMP280;7420;53.574;10.040;2023-11-22T13:15:35;10315.94;;;-136.87
14666;BMP280;7420;53.574;10.040;2023-11-22T13:18:01;10328.00;;;-136.87
14666;BMP280;7420;53.574;10.040;2023-11-22T13:20:27;10348.13;;;-136.87
14666;BMP280;7420;53.574;10.040;2023-11-22T13:22:53;10356.16;;;-136.87
14666;BMP280;7420;53.574;10.040;2023-11-22T13:25:22;10370.22;;;-136.87
14666;BMP280;7420;53.574;10.040;2023-11-22T13:27:49;10388.31;;;-136.87
14666;BMP280;7420;53.574;10.040;2023-11-22T13:30:16;10344.09;;;-136.87
14666;BMP280;7420;53.574;10.040;2023-11-22T13:32:45;10392.34;;;-136.87
14666;BMP280;7420;53.574;10.040;2023-11-22T13:35:10;10299.88;;;-136.87
14666;BMP280;7420;53.574;10.040;2023-11-22T13:37:45;10390.34;;;-136.87
14666;BMP280;7420;53.574;10.040;2023-11-22T13:40:14;10342.09;;;-136.87
14666;BMP280;7420;53.574;10.040;2023-11-22T13:42:44;10332.03;;;-136.87
14666;BMP280;7420;53.574;10.040;2023-11-22T13:45:11;10360.19;;;-136.87
14666;BMP280;7420;53.574;10.040;2023-11-22T13:47:41;10348.13;;;-136.87